< < Back
Terminal Aerodrome Forecast


Current Version              Previous Versions:   1  2  3  4  5  6  7  8  9  

Terminal Aerodrome Forecast

962
FTUS42 KILM 011000 AAB
TAFFLO
TAF AMD
KFLO 011003Z 0110/0206 00000KT P6SM SKC
     FM011100 00000KT 4SM BR SKC
      TEMPO 0111/0112 1SM BR SCT003
     FM011300 04006KT P6SM SCT250=



Latest METAR

386
SAUS70 KWBC 011400 RRL
MTRFLO
METAR KFLO 011353Z 12004KT 10SM CLR 21/18 A3001 RMK AO2 SLP160
T02060178


USA.gov is the U.S. government's official web portal to all federal, state and local government web resources and services.